Siem Reap, Cambodia

8:51 PM ICT on June 30, 2015 (GMT +0700)
Siem Reap | | Change Station
CLOSE
Current Station
Airport
Location: Siemreap,
Elevation: 49 ft
Nearby Weather Stations

Elev 49 ft 13.37 °N, 103.85 °E | Updated 21 minutes ago

Partly Cloudy
Partly Cloudy
86 °F
Feels Like 97 °F
N
10
Wind Variable Wind from SW

Today
High -- | Low -- °F
--% Chance of Precip.
Yesterday
High -- | Low -- °F
Precip. -- in
5:41 AM 6:35 PM
Waxing Gibbous, 97% visible
Pressure 29.74 in
Visibility 4.3 miles
Clouds Scattered Clouds 1700 ft
Few 2000 ft
Heat Index 97 °F
Dew Point 77 °F
Humidity 74%
Rainfall 0.00 in
Snow Depth Not available.
UV 0 out of 12
Pollen Not available.
Air Quality Not available.
Flu Activity Not available.
METAR VDSR 301330Z 23009KT 7000 SCT017 FEW020TCU 30/25 Q1007 TCU:SE

More Conditions Fewer Conditions

Pressure 29.74 in
Visibility 4.3 miles
Clouds Scattered Clouds 1700 ft
Few 2000 ft
Heat Index 97 °F
Dew Point 77 °F
Humidity 74%
Rainfall 0.00 in
Snow Depth Not available.
UV 0 out of 12
Pollen Not available.
Air Quality Not available.
Flu Activity Not available.
METAR VDSR 301330Z 23009KT 7000 SCT017 FEW020TCU 30/25 Q1007 TCU:SE

More Conditions Fewer Conditions

10-Day Weather Forecast

×

Almanac

Astronomy

Jun. 30, 2015 Rise Set
Actual Time
Civil Twilight
Nautical Twilight
Astronomical Twilight
Moon
Length of Visible Light
Length of Day
Tomorrow will be .
, % of the Moon is Illuminated

Today's Extremes

Country Highs Country Lows

Community

WunderPhotos

Upload Photos

1,833,994 photos uploaded!

WunderBlogs® & News

Nearby

Air Quality

  Air Quality AQ Index Pollutant
Not available.

Snow Depth

Station Depth Elevation

Earthquake Activity

City Distance Mag. Time & Date
Minimum magnitude displayed is 2.5.

Coastal Water Temperatures

Place Temperature

Stations

Nearby Weather Stations

Station Location Temp. Windchill Dew Point Humidity Wind Precip. Elev Updated Type